Details From MNMG - Managua Intl
To SKRG - Jose Maria Cordova
Flight Number -
Tags Generated
Created
Modified
Stats Distance 732 nm / 1,356 km
Max Altitude 0 ft / 0 m
Waypoints 4
Social Downloads 1
Likes 0
Share VATSIM

Download

Looking for another format? Having issues loading an existing format? Contact us
Advertisement - Login to hide

Notes

Generated

Route

MNMG BOMAK LI SKRG

ID Type Via Altitude (ft/m) Position (lat/lon) Dist (leg/tot) Name
O MNMG APT - 0 / 0 12.14274 / -86.17933 - / 0 nm
BOMAK FIX - 0 / 0 8.22553 / -78.93311 488 / 488 nm
LI NDB - 0 / 0 6.20727 / -75.42186 241 / 730 nm MEDELLIN NDB
O SKRG APT - 0 / 0 6.18036 / -75.42323 1 / 731 nm

Altitude Profile

Advertisement - Login to hide

Weather


0- 5 10 15 20 25 30 35+ Temperature / °C

Clouds and Precipitation
Forecast for 2018-10-22 00:00 UTC. Updated an hour ago

Ground ~20,000 ft ~40,000 ft Winds

MNMG

Details ICAO MNMG (MGA)
Name Augusto C. Sandino Int'l
Region Nicaragua
Timezone America/Managua (UTC-6.0)
Stats Elevation 192 ft / 59 m (AMSL)
Location 12.141600° -86.168300°
Runways 1
Magnetic Variation 1.067° W

METAR

MNMG 212200Z 06012KT 9999 FEW025 32/21 Q1006 A2973 NOSIG

Decode

TAF

Not found

Departure Runways

ID Width Length Bearing (true/mag) Surface Threshold Overrun Markings Lighting
10 148 ft / 45 m 8,019 ft / 2,444 m 96.54° / 97.61° ASPHALT 0 ft / 0 m 85 ft / 26 m PREC-APP EDGE THRESHOLD ALSF-I
28 148 ft / 45 m 8,019 ft / 2,444 m 276.55° / 277.61° ASPHALT 0 ft / 0 m 92 ft / 28 m APP EDGE THRESHOLD ALSF-I

SKRG

Details ICAO SKRG (MDE)
Name Jose Maria Cordova Int'l
Region Colombia
Timezone America/Bogota (UTC-5.0)
Stats Elevation 6,955 ft / 2,120 m (AMSL)
Location 6.164530° -75.423100°
Runways 1
Magnetic Variation 6.753° W

METAR

SKRG 212200Z VRB02KT 9999 -DZ SCT010 BKN070 14/14 A3019 RERA

Decode

TAF

Not found

Destination Runways

ID Width Length Bearing (true/mag) Surface Threshold Overrun Markings Lighting
01 148 ft / 45 m 11,494 ft / 3,503 m 359.62° / 6.37° ASPHALT 0 ft / 0 m 0 ft / 0 m APP EDGE THRESHOLD
19 148 ft / 45 m 11,494 ft / 3,503 m 179.62° / 186.37° ASPHALT 0 ft / 0 m 0 ft / 0 m PREC-APP EDGE THRESHOLD ALSF-I

Approach Navaids

Runway Type Ident Frequency Range Bearing (true/mag) Slope Elevation
01 OM OM - - 359.62° / 6.37 ° - 8,679 ft / 2,645 m (AMSL)
01 LOC-ILS IMDE 110.90 MHz 18 nm / 33 km 359.62° / 6.37 ° - 6,955 ft / 2,120 m (AMSL)
01 MM MM - - 359.62° / 6.37 ° - 8,679 ft / 2,645 m (AMSL)
01 GS IMDE 110.90 MHz 10 nm / 19 km 359.62° / 6.37 ° 3.00° 6,955 ft / 2,120 m (AMSL)